createdAt,value
2022-09-28T00:01:28.920Z,97529.00
2022-09-28T00:04:02.757Z,97533.00
2022-09-28T00:06:36.757Z,97529.00
2022-09-28T00:09:10.789Z,97525.00
2022-09-28T00:11:43.834Z,97536.00
2022-09-28T00:14:17.771Z,97511.00
2022-09-28T00:16:51.803Z,97526.00
2022-09-28T00:19:25.760Z,97520.00
2022-09-28T00:21:52.687Z,97533.00
2022-09-28T00:24:27.778Z,97537.00
2022-09-28T00:26:56.524Z,97533.00
2022-09-28T00:29:40.819Z,97532.00
2022-09-28T00:32:16.759Z,97545.00
2022-09-28T00:34:44.031Z,97538.00
2022-09-28T00:37:17.762Z,97547.00
2022-09-28T00:39:44.776Z,97551.00
2022-09-28T00:42:23.769Z,97552.00
2022-09-28T00:44:58.279Z,97554.00
2022-09-28T00:47:59.762Z,97548.00
2022-09-28T00:50:36.779Z,97537.00
2022-09-28T00:53:14.236Z,97536.00
2022-09-28T00:56:03.766Z,97547.00
2022-09-28T00:58:32.155Z,97552.00
2022-09-28T01:01:05.803Z,97551.00
2022-09-28T01:03:38.763Z,97554.00
2022-09-28T01:06:05.810Z,97554.00
2022-09-28T01:08:39.826Z,97550.00
2022-09-28T01:11:06.678Z,97561.00
2022-09-28T01:13:33.591Z,97523.00
2022-09-28T01:16:12.879Z,97550.00
2022-09-28T01:19:03.290Z,97546.00
2022-09-28T01:21:36.777Z,97548.00
2022-09-28T01:24:42.202Z,97560.00
2022-09-28T01:27:34.819Z,97544.00
2022-09-28T01:30:15.139Z,97539.00
2022-09-28T01:33:04.814Z,97540.00
2022-09-28T01:35:48.733Z,97520.00
2022-09-28T01:38:31.827Z,97532.00
2022-09-28T01:40:58.900Z,97531.00
2022-09-28T01:43:34.782Z,97542.00
2022-09-28T01:46:19.314Z,97543.00
2022-09-28T01:49:04.825Z,97542.00
2022-09-28T01:51:39.915Z,97527.00
2022-09-28T01:54:20.803Z,97522.00
2022-09-28T01:56:57.976Z,97501.00
2022-09-28T01:59:35.824Z,97515.00
2022-09-28T02:02:20.893Z,97492.00
2022-09-28T02:05:14.846Z,97493.00
2022-09-28T02:08:12.836Z,97515.00
2022-09-28T02:11:09.827Z,97530.00
2022-09-28T02:13:43.693Z,97527.00
2022-09-28T02:16:50.803Z,97482.00
2022-09-28T02:19:24.366Z,97516.00
2022-09-28T02:22:04.822Z,97516.00
2022-09-28T02:25:06.990Z,97495.00
2022-09-28T02:28:08.829Z,97505.00
2022-09-28T02:30:38.311Z,97502.00
2022-09-28T02:33:24.883Z,97512.00
2022-09-28T02:35:51.795Z,97494.00
2022-09-28T02:38:24.849Z,97470.00
2022-09-28T02:41:39.862Z,97489.00
2022-09-28T02:44:43.346Z,97498.00
2022-09-28T02:47:37.894Z,97481.00
2022-09-28T02:50:35.602Z,97490.00
2022-09-28T02:53:52.867Z,97496.00
2022-09-28T02:57:26.862Z,97497.00
2022-09-28T02:59:58.202Z,97484.00
2022-09-28T03:02:38.832Z,97484.00
2022-09-28T03:05:27.982Z,97468.00
2022-09-28T03:08:10.464Z,97463.00
2022-09-28T03:10:48.996Z,97464.00
2022-09-28T03:13:24.089Z,97467.00
2022-09-28T03:15:51.145Z,97479.00
2022-09-28T03:18:29.566Z,97470.00
2022-09-28T03:20:56.454Z,97474.00
2022-09-28T03:23:29.969Z,97483.00
2022-09-28T03:25:56.887Z,97488.00
2022-09-28T03:28:23.824Z,97471.00
2022-09-28T03:30:56.884Z,97492.00
2022-09-28T03:33:29.843Z,97486.00
2022-09-28T03:36:02.862Z,97471.00
2022-09-28T03:38:29.765Z,97476.00
2022-09-28T03:41:04.858Z,97469.00
2022-09-28T03:43:37.898Z,97466.00
2022-09-28T03:46:11.920Z,97460.00
2022-09-28T03:48:40.036Z,97453.00
2022-09-28T03:51:13.879Z,97467.00
2022-09-28T03:53:40.862Z,97483.00
2022-09-28T03:56:17.891Z,97460.00
2022-09-28T03:58:44.805Z,97477.00
2022-09-28T04:01:20.071Z,97467.00
2022-09-28T04:03:53.911Z,97482.00
2022-09-28T04:06:26.883Z,97476.00
2022-09-28T04:08:53.847Z,97510.00
2022-09-28T04:11:26.988Z,97489.00
2022-09-28T04:13:53.954Z,97494.00
2022-09-28T04:16:20.870Z,97493.00
2022-09-28T04:18:53.869Z,97487.00
2022-09-28T04:21:20.883Z,97510.00
2022-09-28T04:23:53.876Z,97512.00
2022-09-28T04:26:30.856Z,97501.00
2022-09-28T04:29:06.533Z,97517.00
2022-09-28T04:32:00.378Z,97514.00
2022-09-28T04:34:37.149Z,97525.00
2022-09-28T04:37:05.623Z,97526.00
2022-09-28T04:39:38.854Z,97505.00
2022-09-28T04:42:05.818Z,97520.00
2022-09-28T04:44:38.881Z,97503.00
2022-09-28T04:47:05.797Z,97496.00
2022-09-28T04:49:38.882Z,97503.00
2022-09-28T04:52:18.041Z,97487.00
2022-09-28T04:54:45.438Z,97481.00
2022-09-28T04:57:18.895Z,97469.00
2022-09-28T04:59:45.734Z,97470.00
2022-09-28T05:02:18.975Z,97464.00
2022-09-28T05:04:45.915Z,97465.00
2022-09-28T05:07:16.863Z,97433.00
2022-09-28T05:09:53.970Z,97475.00
2022-09-28T05:12:21.188Z,97458.00
2022-09-28T05:14:54.909Z,97450.00
2022-09-28T05:17:27.931Z,97465.00
2022-09-28T05:19:54.854Z,97476.00
2022-09-28T05:22:21.716Z,97466.00
2022-09-28T05:24:54.954Z,97469.00
2022-09-28T05:27:28.959Z,97468.00
2022-09-28T05:29:55.961Z,97483.00
2022-09-28T05:32:28.906Z,97490.00
2022-09-28T05:34:55.910Z,97475.00
2022-09-28T05:37:28.907Z,97479.00
2022-09-28T05:39:55.723Z,97483.00
2022-09-28T05:42:28.917Z,97479.00
2022-09-28T05:44:55.781Z,97484.00
2022-09-28T05:47:28.910Z,97480.00
2022-09-28T05:49:55.958Z,97473.00
2022-09-28T05:52:22.822Z,97479.00
2022-09-28T05:54:55.914Z,97489.00
2022-09-28T05:57:22.859Z,97495.00
2022-09-28T05:59:55.940Z,97496.00
2022-09-28T06:02:28.977Z,97490.00
2022-09-28T06:04:55.921Z,97495.00
2022-09-28T06:07:22.787Z,97491.00
2022-09-28T06:09:55.956Z,97484.00
2022-09-28T06:12:23.002Z,97476.00
2022-09-28T06:14:55.980Z,97481.00
2022-09-28T06:17:28.940Z,97482.00
2022-09-28T06:19:55.992Z,97493.00
2022-09-28T06:22:28.931Z,97509.00
2022-09-28T06:24:55.765Z,97490.00
2022-09-28T06:27:22.608Z,97500.00
2022-09-28T06:29:55.946Z,97499.00
2022-09-28T06:32:22.859Z,97502.00
2022-09-28T06:34:56.552Z,97497.00
2022-09-28T06:37:23.622Z,97513.00
2022-09-28T06:39:56.954Z,97523.00
2022-09-28T06:42:23.827Z,97527.00
2022-09-28T06:44:50.787Z,97532.00
2022-09-28T06:47:23.957Z,97520.00
2022-09-28T06:49:50.797Z,97531.00
2022-09-28T06:52:24.060Z,97533.00
2022-09-28T06:54:51.477Z,97503.00
2022-09-28T06:57:25.017Z,97499.00
2022-09-28T06:59:57.954Z,97510.00
2022-09-28T07:02:31.388Z,97502.00
2022-09-28T07:05:05.142Z,97491.00
2022-09-28T07:07:32.373Z,97513.00
2022-09-28T07:10:05.959Z,97526.00
2022-09-28T07:12:35.614Z,97533.00
2022-09-28T07:15:02.821Z,97516.00
2022-09-28T07:17:45.772Z,97504.00
2022-09-28T07:20:19.748Z,97523.00
2022-09-28T07:22:53.060Z,97492.00
2022-09-28T07:25:20.356Z,97499.00
2022-09-28T07:27:54.037Z,97499.00
2022-09-28T07:30:21.305Z,97516.00
2022-09-28T07:32:48.399Z,97500.00
2022-09-28T07:35:25.011Z,97495.00
2022-09-28T07:38:06.907Z,97499.00
2022-09-28T07:40:44.080Z,97512.00
2022-09-28T07:43:20.357Z,97493.00
2022-09-28T07:45:48.553Z,97502.00
2022-09-28T07:48:22.991Z,97513.00
2022-09-28T07:50:54.687Z,97511.00
2022-09-28T07:53:30.000Z,97504.00
2022-09-28T07:55:58.725Z,97525.00
2022-09-28T07:58:25.606Z,97519.00
2022-09-28T08:00:59.082Z,97529.00
2022-09-28T08:03:25.962Z,97520.00
2022-09-28T08:06:07.058Z,97504.00
2022-09-28T08:08:41.015Z,97512.00
2022-09-28T08:11:14.017Z,97504.00
2022-09-28T08:13:40.875Z,97514.00
2022-09-28T08:16:14.118Z,97498.00
2022-09-28T08:18:49.581Z,97498.00
2022-09-28T08:21:26.088Z,97518.00
2022-09-28T08:23:53.267Z,97519.00
2022-09-28T08:26:27.125Z,97519.00
2022-09-28T08:28:54.409Z,97532.00
2022-09-28T08:31:28.090Z,97524.00
2022-09-28T08:33:55.208Z,97525.00
2022-09-28T08:36:22.481Z,97515.00
2022-09-28T08:38:56.113Z,97521.00
2022-09-28T08:41:39.174Z,97535.00
2022-09-28T08:44:29.115Z,97489.00
2022-09-28T08:47:11.140Z,97516.00
2022-09-28T08:49:44.922Z,97493.00
2022-09-28T08:52:34.188Z,97489.00
2022-09-28T08:55:04.849Z,97514.00
2022-09-28T08:57:59.115Z,97496.00
2022-09-28T09:00:51.239Z,97511.00
2022-09-28T09:03:42.071Z,97500.00
2022-09-28T09:06:36.476Z,97517.00
2022-09-28T09:09:38.054Z,97518.00
2022-09-28T09:12:21.502Z,97524.00
2022-09-28T09:15:44.062Z,97524.00
2022-09-28T09:18:38.486Z,97522.00
2022-09-28T09:21:41.089Z,97499.00
2022-09-28T09:24:41.339Z,97512.00
2022-09-28T09:27:45.187Z,97514.00
2022-09-28T09:30:20.602Z,97498.00
2022-09-28T09:33:07.154Z,97514.00
2022-09-28T09:35:52.986Z,97515.00
2022-09-28T09:38:56.127Z,97491.00
2022-09-28T09:41:30.538Z,97514.00
2022-09-28T09:44:28.129Z,97514.00
2022-09-28T09:47:11.407Z,97503.00
2022-09-28T09:50:10.183Z,97500.00
2022-09-28T09:52:49.911Z,97509.00
2022-09-28T09:55:43.137Z,97502.00
2022-09-28T09:58:32.892Z,97480.00
2022-09-28T10:01:15.280Z,97473.00
2022-09-28T10:03:44.945Z,97470.00
2022-09-28T10:06:28.451Z,97470.00
2022-09-28T10:09:10.348Z,97476.00
2022-09-28T10:11:51.263Z,97477.00
2022-09-28T10:14:20.560Z,97469.00
2022-09-28T10:16:56.241Z,97467.00
2022-09-28T10:19:39.329Z,97464.00
2022-09-28T10:22:13.284Z,97465.00
2022-09-28T10:24:48.942Z,97452.00
2022-09-28T10:27:38.322Z,97450.00
2022-09-28T10:30:11.399Z,97445.00
2022-09-28T10:32:50.132Z,97425.00
2022-09-28T10:35:29.125Z,97420.00
2022-09-28T10:38:23.237Z,97427.00
2022-09-28T10:41:01.238Z,97435.00
2022-09-28T10:43:33.646Z,97442.00
2022-09-28T10:46:27.276Z,97425.00
2022-09-28T10:49:15.108Z,97438.00
2022-09-28T10:51:59.249Z,97416.00
2022-09-28T10:54:31.072Z,97412.00
2022-09-28T10:57:05.145Z,97416.00
2022-09-28T10:59:36.835Z,97438.00
2022-09-28T11:02:19.217Z,97423.00
2022-09-28T11:04:55.367Z,97418.00
2022-09-28T11:07:34.152Z,97417.00
2022-09-28T11:10:01.215Z,97425.00
2022-09-28T11:12:50.193Z,97434.00
2022-09-28T11:15:25.799Z,97440.00
2022-09-28T11:18:02.096Z,97422.00
2022-09-28T11:20:41.162Z,97428.00
2022-09-28T11:23:30.181Z,97424.00
2022-09-28T11:26:17.682Z,97398.00
2022-09-28T11:28:45.640Z,97403.00
2022-09-28T11:31:12.677Z,97410.00
2022-09-28T11:33:49.334Z,97418.00
2022-09-28T11:36:23.165Z,97434.00
2022-09-28T11:39:25.172Z,97431.00
2022-09-28T11:42:04.167Z,97417.00
2022-09-28T11:44:50.204Z,97425.00
2022-09-28T11:47:52.165Z,97423.00
2022-09-28T11:51:09.247Z,97426.00
2022-09-28T11:54:00.159Z,97406.00
2022-09-28T11:56:52.235Z,97393.00
2022-09-28T11:59:42.197Z,97404.00
2022-09-28T12:02:26.245Z,97408.00
2022-09-28T12:05:02.192Z,97398.00
2022-09-28T12:07:51.950Z,97386.00
2022-09-28T12:11:18.197Z,97397.00
2022-09-28T12:13:56.194Z,97389.00
2022-09-28T12:17:04.858Z,97397.00
2022-09-28T12:19:59.181Z,97377.00
2022-09-28T12:22:33.491Z,97376.00
2022-09-28T12:25:07.196Z,97374.00
2022-09-28T12:28:01.144Z,97358.00
2022-09-28T12:30:39.244Z,97361.00
2022-09-28T12:33:08.958Z,97367.00
2022-09-28T12:36:16.255Z,97349.00
2022-09-28T12:39:27.212Z,97355.00
2022-09-28T12:42:29.292Z,97336.00
2022-09-28T12:45:59.735Z,97352.00
2022-09-28T12:49:51.502Z,97346.00
2022-09-28T12:52:02.274Z,97340.00
2022-09-28T12:55:15.795Z,97337.00
2022-09-28T12:58:39.201Z,97354.00
2022-09-28T13:01:27.322Z,97342.00
2022-09-28T13:04:42.297Z,97345.00
2022-09-28T13:07:26.845Z,97343.00
2022-09-28T13:10:18.249Z,97344.00
2022-09-28T13:13:30.261Z,97337.00
2022-09-28T13:16:02.863Z,97322.00
2022-09-28T13:19:10.224Z,97332.00
2022-09-28T13:22:06.635Z,97327.00
2022-09-28T13:24:43.232Z,97310.00
2022-09-28T13:27:14.851Z,97321.00
2022-09-28T13:29:51.254Z,97312.00
2022-09-28T13:32:18.123Z,97310.00
2022-09-28T13:34:55.264Z,97309.00
2022-09-28T13:37:25.013Z,97297.00
2022-09-28T13:40:05.319Z,97298.00
2022-09-28T13:42:48.580Z,97303.00
2022-09-28T13:45:28.297Z,97304.00
2022-09-28T13:48:17.157Z,97302.00
2022-09-28T13:51:19.282Z,97309.00
2022-09-28T13:54:10.646Z,97295.00
2022-09-28T13:57:10.243Z,97300.00
2022-09-28T14:00:03.302Z,97285.00
2022-09-28T14:02:55.314Z,97276.00
2022-09-28T14:05:44.479Z,97284.00
2022-09-28T14:08:30.318Z,97285.00
2022-09-28T14:11:18.001Z,97280.00
2022-09-28T14:13:51.288Z,97254.00
2022-09-28T14:16:26.818Z,97274.00
2022-09-28T14:19:30.299Z,97279.00
2022-09-28T14:22:23.560Z,97282.00
2022-09-28T14:25:31.246Z,97268.00
2022-09-28T14:28:26.654Z,97284.00
2022-09-28T14:31:01.315Z,97281.00
2022-09-28T14:33:37.328Z,97275.00
2022-09-28T14:36:08.677Z,97284.00
2022-09-28T14:38:53.273Z,97284.00
2022-09-28T14:41:31.304Z,97290.00
2022-09-28T14:44:08.294Z,97281.00
2022-09-28T14:46:45.070Z,97289.00
2022-09-28T14:49:24.351Z,97284.00
2022-09-28T14:51:54.159Z,97288.00
2022-09-28T14:54:29.324Z,97267.00
2022-09-28T14:57:27.376Z,97281.00
2022-09-28T15:00:01.303Z,97257.00
2022-09-28T15:02:32.519Z,97252.00
2022-09-28T15:05:22.504Z,97283.00
2022-09-28T15:07:51.619Z,97267.00
2022-09-28T15:10:38.322Z,97283.00
2022-09-28T15:13:19.527Z,97249.00
2022-09-28T15:15:56.494Z,97284.00
2022-09-28T15:18:57.421Z,97270.00
2022-09-28T15:21:37.432Z,97267.00
2022-09-28T15:24:26.800Z,97261.00
2022-09-28T15:27:00.349Z,97277.00
2022-09-28T15:29:27.456Z,97265.00
2022-09-28T15:31:54.809Z,97269.00
2022-09-28T15:34:41.491Z,97280.00
2022-09-28T15:37:15.512Z,97263.00
2022-09-28T15:39:42.607Z,97277.00
2022-09-28T15:42:09.650Z,97280.00
2022-09-28T15:44:46.359Z,97259.00
2022-09-28T15:47:28.031Z,97274.00
2022-09-28T15:50:07.446Z,97268.00
2022-09-28T15:52:46.103Z,97275.00
2022-09-28T15:55:42.408Z,97291.00
2022-09-28T15:58:22.999Z,97272.00
2022-09-28T16:00:58.404Z,97281.00
2022-09-28T16:03:29.358Z,97276.00
2022-09-28T16:06:06.398Z,97306.00
2022-09-28T16:08:36.132Z,97312.00
2022-09-28T16:11:34.428Z,97306.00
2022-09-28T16:14:18.207Z,97295.00
2022-09-28T16:17:00.282Z,97306.00
2022-09-28T16:19:29.736Z,97313.00
2022-09-28T16:22:07.378Z,97309.00
2022-09-28T16:24:36.402Z,97312.00
2022-09-28T16:27:13.354Z,97297.00
2022-09-28T16:29:41.599Z,97305.00
2022-09-28T16:32:33.409Z,97327.00
2022-09-28T16:35:23.416Z,97324.00
2022-09-28T16:38:08.986Z,97321.00
2022-09-28T16:40:47.463Z,97321.00
2022-09-28T16:43:25.814Z,97323.00
2022-09-28T16:46:11.535Z,97327.00
2022-09-28T16:48:43.467Z,97312.00
2022-09-28T16:51:10.365Z,97310.00
2022-09-28T16:53:43.417Z,97322.00
2022-09-28T16:56:17.407Z,97333.00
2022-09-28T16:58:44.502Z,97333.00
2022-09-28T17:01:18.425Z,97326.00
2022-09-28T17:03:45.375Z,97330.00
2022-09-28T17:06:18.349Z,97329.00
2022-09-28T17:08:45.262Z,97340.00
2022-09-28T17:11:25.442Z,97337.00
2022-09-28T17:13:52.409Z,97333.00
2022-09-28T17:16:49.717Z,97337.00
2022-09-28T17:19:24.539Z,97339.00
2022-09-28T17:21:58.404Z,97336.00
2022-09-28T17:24:25.267Z,97352.00
2022-09-28T17:26:52.281Z,97348.00
2022-09-28T17:29:25.395Z,97359.00
2022-09-28T17:31:58.384Z,97373.00
2022-09-28T17:34:25.270Z,97370.00
2022-09-28T17:36:58.383Z,97365.00
2022-09-28T17:39:25.256Z,97374.00
2022-09-28T17:41:52.090Z,97371.00
2022-09-28T17:44:25.434Z,97377.00
2022-09-28T17:46:52.302Z,97360.00
2022-09-28T17:49:33.140Z,97356.00
2022-09-28T17:52:00.767Z,97366.00
2022-09-28T17:54:27.668Z,97362.00
2022-09-28T17:57:01.401Z,97382.00
2022-09-28T17:59:28.313Z,97382.00
2022-09-28T18:02:02.564Z,97377.00
2022-09-28T18:04:51.186Z,97380.00
2022-09-28T18:07:25.410Z,97362.00
2022-09-28T18:10:00.426Z,97370.00
2022-09-28T18:12:33.445Z,97381.00
2022-09-28T18:15:00.361Z,97367.00
2022-09-28T18:17:33.470Z,97355.00
2022-09-28T18:20:00.538Z,97357.00
2022-09-28T18:22:33.532Z,97342.00
2022-09-28T18:25:00.492Z,97348.00
2022-09-28T18:27:37.430Z,97354.00
2022-09-28T18:30:05.805Z,97336.00
2022-09-28T18:32:42.418Z,97350.00
2022-09-28T18:35:09.863Z,97341.00
2022-09-28T18:37:46.442Z,97356.00
2022-09-28T18:40:13.672Z,97351.00
2022-09-28T18:42:47.544Z,97350.00
2022-09-28T18:45:14.494Z,97347.00
2022-09-28T18:47:41.387Z,97343.00
2022-09-28T18:50:15.537Z,97342.00
2022-09-28T18:52:44.012Z,97358.00
2022-09-28T18:55:17.459Z,97375.00
2022-09-28T18:57:44.517Z,97368.00
2022-09-28T19:00:12.735Z,97356.00
2022-09-28T19:02:46.690Z,97356.00
2022-09-28T19:05:13.753Z,97369.00
2022-09-28T19:07:47.488Z,97355.00
2022-09-28T19:10:14.521Z,97358.00
2022-09-28T19:12:47.452Z,97357.00
2022-09-28T19:15:20.489Z,97378.00
2022-09-28T19:17:47.391Z,97388.00
2022-09-28T19:20:21.552Z,97364.00
2022-09-28T19:22:51.559Z,97349.00
2022-09-28T19:25:18.490Z,97360.00
2022-09-28T19:27:51.523Z,97330.00
2022-09-28T19:30:18.559Z,97354.00
2022-09-28T19:32:51.627Z,97357.00
2022-09-28T19:35:18.762Z,97357.00
2022-09-28T19:37:52.499Z,97367.00
2022-09-28T19:40:25.555Z,97356.00
2022-09-28T19:42:59.567Z,97358.00
2022-09-28T19:45:26.612Z,97360.00
2022-09-28T19:48:00.527Z,97378.00
2022-09-28T19:50:34.517Z,97353.00
2022-09-28T19:53:07.499Z,97354.00
2022-09-28T19:55:34.458Z,97349.00
2022-09-28T19:58:07.504Z,97346.00
2022-09-28T20:00:34.510Z,97348.00
2022-09-28T20:03:01.531Z,97343.00
2022-09-28T20:05:34.552Z,97354.00
2022-09-28T20:08:04.692Z,97363.00
2022-09-28T20:10:45.538Z,97363.00
2022-09-28T20:13:12.486Z,97353.00
2022-09-28T20:15:45.888Z,97357.00
2022-09-28T20:18:19.529Z,97372.00
2022-09-28T20:20:52.534Z,97353.00
2022-09-28T20:23:19.483Z,97353.00
2022-09-28T20:25:46.382Z,97345.00
2022-09-28T20:28:20.613Z,97353.00
2022-09-28T20:30:57.333Z,97363.00
2022-09-28T20:33:28.825Z,97370.00
2022-09-28T20:36:11.545Z,97372.00
2022-09-28T20:42:10.582Z,97376.00
2022-09-28T20:44:59.035Z,97347.00
2022-09-28T20:47:32.547Z,97339.00
2022-09-28T20:50:16.838Z,97360.00
2022-09-28T20:53:09.385Z,97347.00
2022-09-28T20:56:35.668Z,97354.00
2022-09-28T21:03:42.745Z,97360.00
2022-09-28T21:06:27.585Z,97349.00
2022-09-28T21:09:35.270Z,97365.00
2022-09-28T21:24:42.826Z,97332.00
2022-09-28T21:27:54.340Z,97327.00
2022-09-28T21:34:45.182Z,97351.00
2022-09-28T21:37:34.108Z,97338.00
2022-09-28T21:40:43.403Z,97354.00
2022-09-28T21:44:27.715Z,97330.00
2022-09-28T21:47:03.902Z,97334.00
2022-09-28T21:49:38.942Z,97336.00
2022-09-28T21:52:23.498Z,97343.00
2022-09-28T21:54:50.415Z,97344.00
2022-09-28T21:57:27.784Z,97350.00
2022-09-28T22:00:04.235Z,97359.00
2022-09-28T22:02:37.617Z,97359.00
2022-09-28T22:05:05.300Z,97366.00
2022-09-28T22:07:38.722Z,97363.00
2022-09-28T22:10:07.525Z,97374.00
2022-09-28T22:12:40.653Z,97370.00
2022-09-28T22:15:08.442Z,97374.00
2022-09-28T22:17:42.607Z,97369.00
2022-09-28T22:20:09.825Z,97380.00
2022-09-28T22:22:43.619Z,97375.00
2022-09-28T22:25:10.813Z,97385.00
2022-09-28T22:27:37.655Z,97390.00
2022-09-28T22:30:11.581Z,97386.00
2022-09-28T22:32:38.745Z,97386.00
2022-09-28T22:35:12.590Z,97399.00
2022-09-28T22:37:39.457Z,97379.00
2022-09-28T22:40:13.584Z,97372.00
2022-09-28T22:42:40.430Z,97386.00
2022-09-28T22:45:14.569Z,97369.00
2022-09-28T22:47:41.439Z,97385.00
2022-09-28T22:50:15.593Z,97388.00
2022-09-28T22:52:42.439Z,97382.00
2022-09-28T22:55:15.609Z,97377.00
2022-09-28T22:57:42.450Z,97355.00
2022-09-28T23:00:16.592Z,97382.00
2022-09-28T23:02:49.662Z,97382.00
2022-09-28T23:05:16.583Z,97375.00
2022-09-28T23:07:49.649Z,97360.00
2022-09-28T23:10:16.641Z,97362.00
2022-09-28T23:12:43.520Z,97360.00
2022-09-28T23:15:17.614Z,97360.00
2022-09-28T23:17:44.514Z,97367.00
2022-09-28T23:20:11.367Z,97369.00
2022-09-28T23:22:44.636Z,97374.00
2022-09-28T23:25:11.506Z,97358.00
2022-09-28T23:27:44.620Z,97366.00
2022-09-28T23:30:11.824Z,97370.00
2022-09-28T23:32:45.603Z,97360.00
2022-09-28T23:35:13.161Z,97339.00
2022-09-28T23:37:46.704Z,97333.00
2022-09-28T23:40:13.931Z,97310.00
2022-09-28T23:42:47.667Z,97306.00
2022-09-28T23:45:14.657Z,97296.00
2022-09-28T23:47:47.630Z,97316.00
2022-09-28T23:50:20.662Z,97312.00
2022-09-28T23:52:48.278Z,97330.00
2022-09-28T23:55:21.654Z,97302.00
2022-09-28T23:57:48.857Z,97322.00
